sensor_id;sensor_type;location;lat;lon;timestamp;P1;durP1;ratioP1;P2;durP2;ratioP2
24151;SDS011;12311;50.866;4.332;2023-06-14T00:27:28;7.50;;;2.78;;
24151;SDS011;12311;50.866;4.332;2023-06-14T00:29:53;6.80;;;2.90;;
24151;SDS011;12311;50.866;4.332;2023-06-14T00:32:19;5.97;;;2.60;;
24151;SDS011;12311;50.866;4.332;2023-06-14T00:34:49;7.00;;;3.75;;
24151;SDS011;12311;50.866;4.332;2023-06-14T00:37:15;5.10;;;2.60;;
24151;SDS011;12311;50.866;4.332;2023-06-14T00:39:40;7.53;;;2.67;;
24151;SDS011;12311;50.866;4.332;2023-06-14T00:42:06;5.07;;;2.75;;
24151;SDS011;12311;50.866;4.332;2023-06-14T00:44:32;6.10;;;2.80;;
24151;SDS011;12311;50.866;4.332;2023-06-14T00:46:57;6.45;;;3.05;;
24151;SDS011;12311;50.866;4.332;2023-06-14T00:49:23;8.52;;;3.45;;
24151;SDS011;12311;50.866;4.332;2023-06-14T00:51:49;6.15;;;2.75;;
24151;SDS011;12311;50.866;4.332;2023-06-14T00:54:16;5.63;;;3.40;;
24151;SDS011;12311;50.866;4.332;2023-06-14T00:56:42;5.00;;;3.40;;
24151;SDS011;12311;50.866;4.332;2023-06-14T00:59:09;4.38;;;2.53;;
24151;SDS011;12311;50.866;4.332;2023-06-14T01:01:36;5.40;;;2.47;;
24151;SDS011;12311;50.866;4.332;2023-06-14T01:04:03;8.18;;;3.35;;
24151;SDS011;12311;50.866;4.332;2023-06-14T01:09:13;10.38;;;3.10;;
24151;SDS011;12311;50.866;4.332;2023-06-14T01:11:50;5.47;;;3.15;;
24151;SDS011;12311;50.866;4.332;2023-06-14T01:14:23;6.07;;;3.08;;
24151;SDS011;12311;50.866;4.332;2023-06-14T01:16:50;4.90;;;3.05;;
24151;SDS011;12311;50.866;4.332;2023-06-14T01:19:18;4.88;;;3.17;;
24151;SDS011;12311;50.866;4.332;2023-06-14T01:21:47;9.25;;;4.95;;
24151;SDS011;12311;50.866;4.332;2023-06-14T01:24:16;5.15;;;2.90;;
24151;SDS011;12311;50.866;4.332;2023-06-14T01:26:44;6.28;;;2.65;;
24151;SDS011;12311;50.866;4.332;2023-06-14T01:29:11;9.32;;;3.00;;
24151;SDS011;12311;50.866;4.332;2023-06-14T01:31:41;8.30;;;3.30;;
24151;SDS011;12311;50.866;4.332;2023-06-14T01:34:07;11.80;;;3.15;;
24151;SDS011;12311;50.866;4.332;2023-06-14T01:36:33;6.10;;;3.47;;
24151;SDS011;12311;50.866;4.332;2023-06-14T01:39:03;5.35;;;3.17;;
24151;SDS011;12311;50.866;4.332;2023-06-14T01:41:30;6.78;;;3.60;;
24151;SDS011;12311;50.866;4.332;2023-06-14T01:43:56;6.05;;;3.03;;
24151;SDS011;12311;50.866;4.332;2023-06-14T01:46:23;6.38;;;3.30;;
24151;SDS011;12311;50.866;4.332;2023-06-14T01:48:50;8.30;;;3.45;;
24151;SDS011;12311;50.866;4.332;2023-06-14T01:51:16;9.63;;;3.85;;
24151;SDS011;12311;50.866;4.332;2023-06-14T01:53:41;4.90;;;2.80;;
24151;SDS011;12311;50.866;4.332;2023-06-14T01:56:07;9.32;;;2.97;;
24151;SDS011;12311;50.866;4.332;2023-06-14T01:58:33;6.30;;;3.05;;
24151;SDS011;12311;50.866;4.332;2023-06-14T02:00:58;11.05;;;3.72;;
24151;SDS011;12311;50.866;4.332;2023-06-14T02:03:25;5.63;;;3.30;;
24151;SDS011;12311;50.866;4.332;2023-06-14T02:05:52;9.68;;;3.63;;
24151;SDS011;12311;50.866;4.332;2023-06-14T02:08:19;6.82;;;2.95;;
24151;SDS011;12311;50.866;4.332;2023-06-14T02:10:45;7.50;;;2.97;;
24151;SDS011;12311;50.866;4.332;2023-06-14T02:13:10;6.45;;;3.28;;
24151;SDS011;12311;50.866;4.332;2023-06-14T02:15:36;5.35;;;3.28;;
24151;SDS011;12311;50.866;4.332;2023-06-14T02:18:02;5.45;;;3.63;;
24151;SDS011;12311;50.866;4.332;2023-06-14T02:20:28;6.28;;;3.35;;
24151;SDS011;12311;50.866;4.332;2023-06-14T02:22:54;8.32;;;3.42;;
24151;SDS011;12311;50.866;4.332;2023-06-14T02:25:20;5.90;;;3.15;;
24151;SDS011;12311;50.866;4.332;2023-06-14T02:27:46;5.18;;;3.33;;
24151;SDS011;12311;50.866;4.332;2023-06-14T02:30:11;8.60;;;3.45;;
24151;SDS011;12311;50.866;4.332;2023-06-14T02:32:37;9.25;;;4.07;;
24151;SDS011;12311;50.866;4.332;2023-06-14T02:35:05;5.28;;;3.20;;
24151;SDS011;12311;50.866;4.332;2023-06-14T02:37:32;5.43;;;3.53;;
24151;SDS011;12311;50.866;4.332;2023-06-14T02:39:59;9.73;;;3.78;;
24151;SDS011;12311;50.866;4.332;2023-06-14T02:42:24;7.35;;;3.63;;
24151;SDS011;12311;50.866;4.332;2023-06-14T02:44:50;8.30;;;4.00;;
24151;SDS011;12311;50.866;4.332;2023-06-14T02:47:16;7.53;;;4.10;;
24151;SDS011;12311;50.866;4.332;2023-06-14T02:49:43;6.75;;;3.50;;
24151;SDS011;12311;50.866;4.332;2023-06-14T02:52:08;7.47;;;3.78;;
24151;SDS011;12311;50.866;4.332;2023-06-14T02:54:34;9.13;;;3.70;;
24151;SDS011;12311;50.866;4.332;2023-06-14T02:57:01;10.73;;;3.97;;
24151;SDS011;12311;50.866;4.332;2023-06-14T02:59:27;5.97;;;3.40;;
24151;SDS011;12311;50.866;4.332;2023-06-14T03:01:52;8.90;;;4.45;;
24151;SDS011;12311;50.866;4.332;2023-06-14T03:04:18;7.38;;;3.65;;
24151;SDS011;12311;50.866;4.332;2023-06-14T03:06:44;7.65;;;3.50;;
24151;SDS011;12311;50.866;4.332;2023-06-14T03:09:15;8.40;;;3.92;;
24151;SDS011;12311;50.866;4.332;2023-06-14T03:11:41;8.00;;;4.13;;
24151;SDS011;12311;50.866;4.332;2023-06-14T03:14:06;8.15;;;4.07;;
24151;SDS011;12311;50.866;4.332;2023-06-14T03:16:33;9.15;;;3.75;;
24151;SDS011;12311;50.866;4.332;2023-06-14T03:18:59;7.55;;;4.78;;
24151;SDS011;12311;50.866;4.332;2023-06-14T03:21:25;9.57;;;3.42;;
24151;SDS011;12311;50.866;4.332;2023-06-14T03:23:51;8.00;;;3.83;;
24151;SDS011;12311;50.866;4.332;2023-06-14T03:26:18;9.18;;;3.72;;
24151;SDS011;12311;50.866;4.332;2023-06-14T03:28:46;7.07;;;3.60;;
24151;SDS011;12311;50.866;4.332;2023-06-14T03:31:13;11.18;;;3.90;;
24151;SDS011;12311;50.866;4.332;2023-06-14T03:33:40;8.80;;;3.70;;
24151;SDS011;12311;50.866;4.332;2023-06-14T03:36:06;8.15;;;3.95;;
24151;SDS011;12311;50.866;4.332;2023-06-14T03:38:32;9.88;;;4.28;;
24151;SDS011;12311;50.866;4.332;2023-06-14T03:40:57;15.07;;;4.40;;
24151;SDS011;12311;50.866;4.332;2023-06-14T03:43:23;6.50;;;3.40;;
24151;SDS011;12311;50.866;4.332;2023-06-14T03:45:49;11.32;;;3.92;;
24151;SDS011;12311;50.866;4.332;2023-06-14T03:48:15;7.20;;;4.05;;
24151;SDS011;12311;50.866;4.332;2023-06-14T03:50:41;9.43;;;4.30;;
24151;SDS011;12311;50.866;4.332;2023-06-14T03:53:08;5.65;;;3.47;;
24151;SDS011;12311;50.866;4.332;2023-06-14T03:55:34;7.63;;;3.58;;
24151;SDS011;12311;50.866;4.332;2023-06-14T03:57:59;8.57;;;3.97;;
24151;SDS011;12311;50.866;4.332;2023-06-14T04:00:25;7.00;;;4.25;;
24151;SDS011;12311;50.866;4.332;2023-06-14T04:02:51;6.75;;;3.58;;
24151;SDS011;12311;50.866;4.332;2023-06-14T04:05:18;7.93;;;3.20;;
24151;SDS011;12311;50.866;4.332;2023-06-14T04:07:44;8.68;;;3.90;;
24151;SDS011;12311;50.866;4.332;2023-06-14T04:10:13;6.13;;;3.58;;
24151;SDS011;12311;50.866;4.332;2023-06-14T04:12:40;8.35;;;3.83;;
24151;SDS011;12311;50.866;4.332;2023-06-14T04:15:07;6.18;;;3.53;;
24151;SDS011;12311;50.866;4.332;2023-06-14T04:17:34;6.70;;;3.70;;
24151;SDS011;12311;50.866;4.332;2023-06-14T04:20:00;7.57;;;3.58;;
24151;SDS011;12311;50.866;4.332;2023-06-14T04:22:26;7.28;;;3.60;;
24151;SDS011;12311;50.866;4.332;2023-06-14T04:24:55;8.82;;;4.47;;
24151;SDS011;12311;50.866;4.332;2023-06-14T04:27:25;8.00;;;3.50;;
24151;SDS011;12311;50.866;4.332;2023-06-14T04:29:52;8.70;;;4.32;;
24151;SDS011;12311;50.866;4.332;2023-06-14T04:32:23;8.23;;;3.92;;
24151;SDS011;12311;50.866;4.332;2023-06-14T04:34:51;7.60;;;4.15;;
24151;SDS011;12311;50.866;4.332;2023-06-14T04:37:24;6.78;;;3.35;;
24151;SDS011;12311;50.866;4.332;2023-06-14T04:39:51;7.28;;;3.47;;
24151;SDS011;12311;50.866;4.332;2023-06-14T04:42:17;10.85;;;4.20;;
24151;SDS011;12311;50.866;4.332;2023-06-14T04:44:45;12.63;;;4.13;;
24151;SDS011;12311;50.866;4.332;2023-06-14T04:47:12;9.32;;;4.22;;
24151;SDS011;12311;50.866;4.332;2023-06-14T04:49:39;7.85;;;4.20;;
24151;SDS011;12311;50.866;4.332;2023-06-14T04:52:06;11.57;;;4.97;;
24151;SDS011;12311;50.866;4.332;2023-06-14T04:54:35;10.32;;;3.70;;
24151;SDS011;12311;50.866;4.332;2023-06-14T04:57:02;9.88;;;3.90;;
24151;SDS011;12311;50.866;4.332;2023-06-14T04:59:30;10.60;;;4.55;;
24151;SDS011;12311;50.866;4.332;2023-06-14T05:01:58;9.00;;;4.25;;
24151;SDS011;12311;50.866;4.332;2023-06-14T05:04:25;13.85;;;4.65;;
24151;SDS011;12311;50.866;4.332;2023-06-14T05:06:52;10.93;;;3.67;;
24151;SDS011;12311;50.866;4.332;2023-06-14T05:09:19;6.75;;;3.83;;
24151;SDS011;12311;50.866;4.332;2023-06-14T05:11:46;7.15;;;3.55;;
24151;SDS011;12311;50.866;4.332;2023-06-14T05:14:12;9.48;;;3.75;;
24151;SDS011;12311;50.866;4.332;2023-06-14T05:16:40;7.68;;;4.18;;
24151;SDS011;12311;50.866;4.332;2023-06-14T05:19:06;9.13;;;4.28;;
24151;SDS011;12311;50.866;4.332;2023-06-14T05:21:32;6.18;;;3.85;;
24151;SDS011;12311;50.866;4.332;2023-06-14T05:24:01;8.52;;;3.92;;
24151;SDS011;12311;50.866;4.332;2023-06-14T05:26:26;8.10;;;4.45;;
24151;SDS011;12311;50.866;4.332;2023-06-14T05:28:56;10.93;;;3.70;;
24151;SDS011;12311;50.866;4.332;2023-06-14T05:31:22;5.70;;;3.65;;
24151;SDS011;12311;50.866;4.332;2023-06-14T05:33:49;6.03;;;3.40;;
24151;SDS011;12311;50.866;4.332;2023-06-14T05:36:15;6.35;;;3.30;;
24151;SDS011;12311;50.866;4.332;2023-06-14T05:38:41;7.53;;;4.10;;
24151;SDS011;12311;50.866;4.332;2023-06-14T05:41:06;7.70;;;3.88;;
24151;SDS011;12311;50.866;4.332;2023-06-14T05:43:32;8.85;;;3.72;;
24151;SDS011;12311;50.866;4.332;2023-06-14T05:45:59;7.50;;;4.07;;
24151;SDS011;12311;50.866;4.332;2023-06-14T05:48:24;6.55;;;3.58;;
24151;SDS011;12311;50.866;4.332;2023-06-14T05:50:51;9.02;;;4.28;;
24151;SDS011;12311;50.866;4.332;2023-06-14T05:53:17;11.60;;;4.65;;
24151;SDS011;12311;50.866;4.332;2023-06-14T05:55:43;12.38;;;4.43;;
24151;SDS011;12311;50.866;4.332;2023-06-14T05:58:08;6.13;;;3.63;;
24151;SDS011;12311;50.866;4.332;2023-06-14T06:00:35;8.70;;;3.85;;
24151;SDS011;12311;50.866;4.332;2023-06-14T06:03:01;14.70;;;3.88;;
24151;SDS011;12311;50.866;4.332;2023-06-14T06:05:27;6.25;;;3.50;;
24151;SDS011;12311;50.866;4.332;2023-06-14T06:07:52;8.10;;;3.45;;
24151;SDS011;12311;50.866;4.332;2023-06-14T06:10:18;6.90;;;3.95;;
24151;SDS011;12311;50.866;4.332;2023-06-14T06:12:44;6.78;;;3.53;;
24151;SDS011;12311;50.866;4.332;2023-06-14T06:15:12;9.70;;;3.90;;
24151;SDS011;12311;50.866;4.332;2023-06-14T06:17:38;9.13;;;3.75;;
24151;SDS011;12311;50.866;4.332;2023-06-14T06:20:04;6.00;;;3.85;;
24151;SDS011;12311;50.866;4.332;2023-06-14T06:22:33;7.78;;;3.97;;
24151;SDS011;12311;50.866;4.332;2023-06-14T06:24:59;8.00;;;3.78;;
24151;SDS011;12311;50.866;4.332;2023-06-14T06:27:25;6.90;;;3.38;;
24151;SDS011;12311;50.866;4.332;2023-06-14T06:29:51;12.95;;;4.20;;
24151;SDS011;12311;50.866;4.332;2023-06-14T06:32:17;9.20;;;4.22;;
24151;SDS011;12311;50.866;4.332;2023-06-14T06:34:43;6.30;;;3.17;;
24151;SDS011;12311;50.866;4.332;2023-06-14T06:37:08;6.00;;;3.30;;
24151;SDS011;12311;50.866;4.332;2023-06-14T06:39:34;8.20;;;3.63;;
24151;SDS011;12311;50.866;4.332;2023-06-14T06:42:00;6.40;;;2.65;;
24151;SDS011;12311;50.866;4.332;2023-06-14T06:44:25;10.00;;;3.90;;
24151;SDS011;12311;50.866;4.332;2023-06-14T06:46:51;5.40;;;3.10;;
24151;SDS011;12311;50.866;4.332;2023-06-14T06:49:17;12.88;;;4.53;;
24151;SDS011;12311;50.866;4.332;2023-06-14T06:51:42;6.75;;;3.15;;
24151;SDS011;12311;50.866;4.332;2023-06-14T06:54:09;6.65;;;4.30;;
24151;SDS011;12311;50.866;4.332;2023-06-14T06:56:35;5.68;;;3.70;;
24151;SDS011;12311;50.866;4.332;2023-06-14T06:59:01;13.90;;;3.45;;
24151;SDS011;12311;50.866;4.332;2023-06-14T07:01:27;7.95;;;3.33;;
24151;SDS011;12311;50.866;4.332;2023-06-14T07:03:54;6.70;;;3.35;;
24151;SDS011;12311;50.866;4.332;2023-06-14T07:06:20;15.10;;;3.78;;
24151;SDS011;12311;50.866;4.332;2023-06-14T07:08:46;6.03;;;3.92;;
24151;SDS011;12311;50.866;4.332;2023-06-14T07:11:14;4.28;;;2.70;;
24151;SDS011;12311;50.866;4.332;2023-06-14T07:13:40;9.35;;;3.83;;
24151;SDS011;12311;50.866;4.332;2023-06-14T07:16:06;10.15;;;3.50;;
24151;SDS011;12311;50.866;4.332;2023-06-14T07:18:32;9.20;;;3.30;;
24151;SDS011;12311;50.866;4.332;2023-06-14T07:20:57;9.07;;;3.40;;
24151;SDS011;12311;50.866;4.332;2023-06-14T07:23:23;6.55;;;3.42;;
24151;SDS011;12311;50.866;4.332;2023-06-14T07:25:49;5.78;;;3.33;;
24151;SDS011;12311;50.866;4.332;2023-06-14T07:28:15;6.65;;;3.10;;
24151;SDS011;12311;50.866;4.332;2023-06-14T07:30:42;8.73;;;4.07;;
24151;SDS011;12311;50.866;4.332;2023-06-14T07:33:07;9.23;;;3.10;;
24151;SDS011;12311;50.866;4.332;2023-06-14T07:35:33;8.40;;;3.33;;
24151;SDS011;12311;50.866;4.332;2023-06-14T07:37:59;6.85;;;2.95;;
24151;SDS011;12311;50.866;4.332;2023-06-14T07:40:25;6.38;;;2.78;;
24151;SDS011;12311;50.866;4.332;2023-06-14T07:42:51;9.50;;;3.30;;
24151;SDS011;12311;50.866;4.332;2023-06-14T07:45:19;8.27;;;4.35;;
24151;SDS011;12311;50.866;4.332;2023-06-14T07:47:44;7.65;;;3.83;;
24151;SDS011;12311;50.866;4.332;2023-06-14T07:50:10;6.43;;;3.10;;
24151;SDS011;12311;50.866;4.332;2023-06-14T07:52:37;5.78;;;2.70;;
24151;SDS011;12311;50.866;4.332;2023-06-14T07:55:03;7.75;;;3.40;;
24151;SDS011;12311;50.866;4.332;2023-06-14T07:57:30;5.18;;;2.90;;
24151;SDS011;12311;50.866;4.332;2023-06-14T07:59:56;8.70;;;3.53;;
24151;SDS011;12311;50.866;4.332;2023-06-14T08:02:22;7.75;;;2.83;;
24151;SDS011;12311;50.866;4.332;2023-06-14T08:04:47;13.10;;;2.67;;
24151;SDS011;12311;50.866;4.332;2023-06-14T08:07:13;7.38;;;2.70;;
24151;SDS011;12311;50.866;4.332;2023-06-14T08:09:39;4.55;;;2.53;;
24151;SDS011;12311;50.866;4.332;2023-06-14T08:12:05;7.00;;;3.00;;
24151;SDS011;12311;50.866;4.332;2023-06-14T08:14:33;4.82;;;2.33;;
24151;SDS011;12311;50.866;4.332;2023-06-14T08:16:59;8.13;;;4.22;;
24151;SDS011;12311;50.866;4.332;2023-06-14T08:19:25;4.75;;;3.20;;
24151;SDS011;12311;50.866;4.332;2023-06-14T08:21:50;5.32;;;2.83;;
24151;SDS011;12311;50.866;4.332;2023-06-14T08:24:16;7.47;;;2.70;;
24151;SDS011;12311;50.866;4.332;2023-06-14T08:26:43;5.65;;;2.80;;
24151;SDS011;12311;50.866;4.332;2023-06-14T08:29:09;6.47;;;2.53;;
24151;SDS011;12311;50.866;4.332;2023-06-14T08:31:35;7.47;;;2.78;;
24151;SDS011;12311;50.866;4.332;2023-06-14T08:34:01;5.75;;;2.75;;
24151;SDS011;12311;50.866;4.332;2023-06-14T08:36:26;5.07;;;2.70;;
24151;SDS011;12311;50.866;4.332;2023-06-14T08:38:52;3.92;;;2.83;;
24151;SDS011;12311;50.866;4.332;2023-06-14T08:41:20;6.97;;;2.70;;
24151;SDS011;12311;50.866;4.332;2023-06-14T08:43:48;6.28;;;2.40;;
24151;SDS011;12311;50.866;4.332;2023-06-14T08:46:14;4.53;;;2.70;;
24151;SDS011;12311;50.866;4.332;2023-06-14T08:48:45;4.40;;;2.33;;
24151;SDS011;12311;50.866;4.332;2023-06-14T08:51:16;5.88;;;2.70;;
24151;SDS011;12311;50.866;4.332;2023-06-14T08:53:44;5.43;;;2.78;;
24151;SDS011;12311;50.866;4.332;2023-06-14T08:56:11;6.30;;;3.00;;
24151;SDS011;12311;50.866;4.332;2023-06-14T08:58:42;3.70;;;2.65;;
24151;SDS011;12311;50.866;4.332;2023-06-14T09:01:10;5.95;;;2.40;;
24151;SDS011;12311;50.866;4.332;2023-06-14T09:03:39;5.43;;;2.90;;
24151;SDS011;12311;50.866;4.332;2023-06-14T09:06:06;6.22;;;2.45;;
24151;SDS011;12311;50.866;4.332;2023-06-14T09:08:34;4.82;;;3.00;;
24151;SDS011;12311;50.866;4.332;2023-06-14T09:11:01;8.38;;;2.55;;
24151;SDS011;12311;50.866;4.332;2023-06-14T09:13:27;4.93;;;2.97;;
24151;SDS011;12311;50.866;4.332;2023-06-14T09:15:53;4.70;;;3.00;;
24151;SDS011;12311;50.866;4.332;2023-06-14T09:18:19;4.50;;;2.75;;
24151;SDS011;12311;50.866;4.332;2023-06-14T09:20:46;7.68;;;3.35;;
24151;SDS011;12311;50.866;4.332;2023-06-14T09:23:13;7.05;;;3.10;;
24151;SDS011;12311;50.866;4.332;2023-06-14T09:25:42;4.30;;;2.58;;
24151;SDS011;12311;50.866;4.332;2023-06-14T09:28:10;4.72;;;2.65;;
24151;SDS011;12311;50.866;4.332;2023-06-14T09:30:37;8.27;;;2.70;;
24151;SDS011;12311;50.866;4.332;2023-06-14T09:33:03;4.53;;;2.72;;
24151;SDS011;12311;50.866;4.332;2023-06-14T09:35:30;3.95;;;2.58;;
24151;SDS011;12311;50.866;4.332;2023-06-14T09:37:57;6.05;;;2.42;;
24151;SDS011;12311;50.866;4.332;2023-06-14T09:40:23;7.82;;;2.63;;
24151;SDS011;12311;50.866;4.332;2023-06-14T09:42:49;5.03;;;2.85;;
24151;SDS011;12311;50.866;4.332;2023-06-14T09:45:15;4.53;;;2.65;;
24151;SDS011;12311;50.866;4.332;2023-06-14T09:47:46;4.00;;;2.50;;
24151;SDS011;12311;50.866;4.332;2023-06-14T09:50:16;4.97;;;2.83;;
24151;SDS011;12311;50.866;4.332;2023-06-14T09:52:43;3.55;;;1.92;;
24151;SDS011;12311;50.866;4.332;2023-06-14T09:55:11;3.40;;;2.40;;
24151;SDS011;12311;50.866;4.332;2023-06-14T09:57:39;4.93;;;2.78;;
24151;SDS011;12311;50.866;4.332;2023-06-14T10:00:10;4.90;;;2.38;;
24151;SDS011;12311;50.866;4.332;2023-06-14T10:02:38;4.57;;;2.28;;
24151;SDS011;12311;50.866;4.332;2023-06-14T10:05:08;3.65;;;2.13;;
24151;SDS011;12311;50.866;4.332;2023-06-14T10:07:40;7.28;;;3.42;;
24151;SDS011;12311;50.866;4.332;2023-06-14T10:10:13;3.72;;;2.03;;
24151;SDS011;12311;50.866;4.332;2023-06-14T10:12:39;4.47;;;2.35;;
24151;SDS011;12311;50.866;4.332;2023-06-14T10:15:07;5.00;;;2.17;;
24151;SDS011;12311;50.866;4.332;2023-06-14T10:17:50;3.20;;;2.05;;
24151;SDS011;12311;50.866;4.332;2023-06-14T10:20:25;4.00;;;2.25;;
24151;SDS011;12311;50.866;4.332;2023-06-14T10:25:30;2.78;;;1.98;;
24151;SDS011;12311;50.866;4.332;2023-06-14T10:28:03;2.88;;;1.83;;
24151;SDS011;12311;50.866;4.332;2023-06-14T10:30:29;5.50;;;2.17;;
24151;SDS011;12311;50.866;4.332;2023-06-14T10:33:04;3.05;;;1.98;;
24151;SDS011;12311;50.866;4.332;2023-06-14T10:35:31;3.22;;;2.03;;
24151;SDS011;12311;50.866;4.332;2023-06-14T10:38:07;3.53;;;2.10;;
24151;SDS011;12311;50.866;4.332;2023-06-14T10:40:33;4.78;;;2.30;;
24151;SDS011;12311;50.866;4.332;2023-06-14T10:43:00;2.88;;;1.77;;
24151;SDS011;12311;50.866;4.332;2023-06-14T10:48:41;4.25;;;2.20;;
24151;SDS011;12311;50.866;4.332;2023-06-14T10:51:17;5.20;;;2.30;;
24151;SDS011;12311;50.866;4.332;2023-06-14T10:53:46;4.13;;;2.33;;
24151;SDS011;12311;50.866;4.332;2023-06-14T10:56:22;4.43;;;1.88;;
24151;SDS011;12311;50.866;4.332;2023-06-14T10:58:51;2.72;;;1.95;;
24151;SDS011;12311;50.866;4.332;2023-06-14T11:01:19;3.92;;;2.33;;
24151;SDS011;12311;50.866;4.332;2023-06-14T11:03:57;3.85;;;2.30;;
24151;SDS011;12311;50.866;4.332;2023-06-14T11:06:33;4.75;;;2.00;;
24151;SDS011;12311;50.866;4.332;2023-06-14T11:12:12;10.57;;;2.00;;
24151;SDS011;12311;50.866;4.332;2023-06-14T11:14:40;2.58;;;1.90;;
24151;SDS011;12311;50.866;4.332;2023-06-14T11:17:05;2.90;;;2.15;;
24151;SDS011;12311;50.866;4.332;2023-06-14T11:19:31;4.22;;;2.03;;
24151;SDS011;12311;50.866;4.332;2023-06-14T11:21:57;2.75;;;1.73;;
24151;SDS011;12311;50.866;4.332;2023-06-14T11:24:24;3.05;;;2.00;;
24151;SDS011;12311;50.866;4.332;2023-06-14T11:26:50;3.97;;;1.95;;
24151;SDS011;12311;50.866;4.332;2023-06-14T11:29:16;3.92;;;2.40;;
24151;SDS011;12311;50.866;4.332;2023-06-14T11:31:45;4.63;;;1.80;;
24151;SDS011;12311;50.866;4.332;2023-06-14T11:34:11;3.25;;;1.98;;
24151;SDS011;12311;50.866;4.332;2023-06-14T11:36:38;4.18;;;1.90;;
24151;SDS011;12311;50.866;4.332;2023-06-14T11:39:06;3.67;;;1.90;;
24151;SDS011;12311;50.866;4.332;2023-06-14T11:41:37;4.22;;;2.13;;
24151;SDS011;12311;50.866;4.332;2023-06-14T11:44:07;4.38;;;1.80;;
24151;SDS011;12311;50.866;4.332;2023-06-14T11:46:34;2.65;;;1.52;;
24151;SDS011;12311;50.866;4.332;2023-06-14T11:49:00;2.97;;;2.00;;
24151;SDS011;12311;50.866;4.332;2023-06-14T11:51:32;4.28;;;1.98;;
24151;SDS011;12311;50.866;4.332;2023-06-14T11:53:59;4.55;;;2.20;;
24151;SDS011;12311;50.866;4.332;2023-06-14T11:56:26;2.17;;;1.77;;
24151;SDS011;12311;50.866;4.332;2023-06-14T11:58:52;2.60;;;2.10;;
24151;SDS011;12311;50.866;4.332;2023-06-14T12:01:21;2.72;;;1.63;;
24151;SDS011;12311;50.866;4.332;2023-06-14T12:03:50;5.43;;;2.97;;
24151;SDS011;12311;50.866;4.332;2023-06-14T12:06:16;6.97;;;2.17;;
24151;SDS011;12311;50.866;4.332;2023-06-14T12:08:50;3.55;;;1.88;;
24151;SDS011;12311;50.866;4.332;2023-06-14T12:11:15;6.20;;;2.17;;
24151;SDS011;12311;50.866;4.332;2023-06-14T12:13:42;3.72;;;1.50;;
24151;SDS011;12311;50.866;4.332;2023-06-14T12:16:09;3.25;;;1.27;;
24151;SDS011;12311;50.866;4.332;2023-06-14T12:18:37;2.90;;;1.95;;
24151;SDS011;12311;50.866;4.332;2023-06-14T12:21:07;3.70;;;1.92;;
24151;SDS011;12311;50.866;4.332;2023-06-14T12:23:46;2.55;;;1.52;;
24151;SDS011;12311;50.866;4.332;2023-06-14T12:26:16;2.17;;;1.40;;
24151;SDS011;12311;50.866;4.332;2023-06-14T12:28:44;3.25;;;1.55;;
24151;SDS011;12311;50.866;4.332;2023-06-14T12:31:11;3.20;;;1.45;;
24151;SDS011;12311;50.866;4.332;2023-06-14T12:33:38;3.40;;;1.40;;
24151;SDS011;12311;50.866;4.332;2023-06-14T12:36:04;2.40;;;1.75;;
24151;SDS011;12311;50.866;4.332;2023-06-14T12:38:32;3.33;;;1.85;;
24151;SDS011;12311;50.866;4.332;2023-06-14T12:40:58;4.53;;;1.50;;
24151;SDS011;12311;50.866;4.332;2023-06-14T12:43:24;2.50;;;1.50;;
24151;SDS011;12311;50.866;4.332;2023-06-14T12:45:49;2.92;;;1.65;;
24151;SDS011;12311;50.866;4.332;2023-06-14T12:48:15;4.22;;;1.42;;
24151;SDS011;12311;50.866;4.332;2023-06-14T12:50:41;2.45;;;1.60;;
24151;SDS011;12311;50.866;4.332;2023-06-14T12:53:07;2.88;;;1.80;;
24151;SDS011;12311;50.866;4.332;2023-06-14T12:55:32;3.55;;;1.98;;
24151;SDS011;12311;50.866;4.332;2023-06-14T12:57:58;6.32;;;1.83;;
24151;SDS011;12311;50.866;4.332;2023-06-14T13:00:24;4.22;;;1.42;;
24151;SDS011;12311;50.866;4.332;2023-06-14T13:02:54;1.98;;;1.40;;
24151;SDS011;12311;50.866;4.332;2023-06-14T13:05:20;2.97;;;1.33;;
24151;SDS011;12311;50.866;4.332;2023-06-14T13:07:46;1.42;;;1.20;;
24151;SDS011;12311;50.866;4.332;2023-06-14T13:10:12;2.63;;;1.50;;
24151;SDS011;12311;50.866;4.332;2023-06-14T13:12:37;2.47;;;1.50;;
24151;SDS011;12311;50.866;4.332;2023-06-14T13:15:03;2.58;;;1.63;;
24151;SDS011;12311;50.866;4.332;2023-06-14T13:17:29;3.05;;;1.60;;
24151;SDS011;12311;50.866;4.332;2023-06-14T13:19:58;1.77;;;1.40;;
24151;SDS011;12311;50.866;4.332;2023-06-14T13:22:23;3.53;;;1.80;;
24151;SDS011;12311;50.866;4.332;2023-06-14T13:24:50;2.97;;;1.45;;
24151;SDS011;12311;50.866;4.332;2023-06-14T13:27:15;3.65;;;1.40;;
24151;SDS011;12311;50.866;4.332;2023-06-14T13:29:41;2.30;;;1.15;;
24151;SDS011;12311;50.866;4.332;2023-06-14T13:32:08;1.30;;;1.10;;
24151;SDS011;12311;50.866;4.332;2023-06-14T13:34:34;2.67;;;1.38;;
24151;SDS011;12311;50.866;4.332;2023-06-14T13:36:59;3.70;;;1.52;;
24151;SDS011;12311;50.866;4.332;2023-06-14T13:39:25;2.08;;;1.50;;
24151;SDS011;12311;50.866;4.332;2023-06-14T13:41:51;2.95;;;1.48;;
24151;SDS011;12311;50.866;4.332;2023-06-14T13:44:17;1.50;;;1.15;;
24151;SDS011;12311;50.866;4.332;2023-06-14T13:46:46;3.03;;;1.10;;
24151;SDS011;12311;50.866;4.332;2023-06-14T13:49:11;2.10;;;1.10;;
24151;SDS011;12311;50.866;4.332;2023-06-14T13:51:37;1.50;;;1.17;;
24151;SDS011;12311;50.866;4.332;2023-06-14T13:54:03;1.50;;;1.00;;
24151;SDS011;12311;50.866;4.332;2023-06-14T13:56:29;2.47;;;1.35;;
24151;SDS011;12311;50.866;4.332;2023-06-14T13:58:55;1.95;;;0.80;;
24151;SDS011;12311;50.866;4.332;2023-06-14T14:01:21;1.30;;;0.98;;
24151;SDS011;12311;50.866;4.332;2023-06-14T14:03:48;3.33;;;1.52;;
24151;SDS011;12311;50.866;4.332;2023-06-14T14:06:14;1.42;;;1.10;;
24151;SDS011;12311;50.866;4.332;2023-06-14T14:08:41;3.25;;;0.90;;
24151;SDS011;12311;50.866;4.332;2023-06-14T14:11:07;2.45;;;1.05;;
24151;SDS011;12311;50.866;4.332;2023-06-14T14:13:34;1.23;;;0.90;;
24151;SDS011;12311;50.866;4.332;2023-06-14T14:16:01;1.38;;;1.00;;
24151;SDS011;12311;50.866;4.332;2023-06-14T14:18:28;1.10;;;0.70;;
24151;SDS011;12311;50.866;4.332;2023-06-14T14:20:54;1.88;;;0.80;;
24151;SDS011;12311;50.866;4.332;2023-06-14T14:23:21;1.52;;;0.85;;
24151;SDS011;12311;50.866;4.332;2023-06-14T14:25:47;0.70;;;0.70;;
24151;SDS011;12311;50.866;4.332;2023-06-14T14:28:13;1.35;;;0.90;;
24151;SDS011;12311;50.866;4.332;2023-06-14T14:30:41;1.00;;;0.68;;
24151;SDS011;12311;50.866;4.332;2023-06-14T14:33:07;0.88;;;0.70;;
24151;SDS011;12311;50.866;4.332;2023-06-14T14:35:33;1.00;;;0.60;;
24151;SDS011;12311;50.866;4.332;2023-06-14T14:37:59;0.82;;;0.70;;
24151;SDS011;12311;50.866;4.332;2023-06-14T14:40:25;0.85;;;0.73;;
24151;SDS011;12311;50.866;4.332;2023-06-14T14:42:51;0.50;;;0.40;;
24151;SDS011;12311;50.866;4.332;2023-06-14T14:45:17;1.30;;;1.00;;
24151;SDS011;12311;50.866;4.332;2023-06-14T14:47:42;1.20;;;0.75;;
24151;SDS011;12311;50.866;4.332;2023-06-14T14:50:08;0.73;;;0.70;;
24151;SDS011;12311;50.866;4.332;2023-06-14T14:52:34;2.35;;;0.85;;
24151;SDS011;12311;50.866;4.332;2023-06-14T14:55:00;0.40;;;0.40;;
24151;SDS011;12311;50.866;4.332;2023-06-14T14:57:26;0.40;;;0.40;;
24151;SDS011;12311;50.866;4.332;2023-06-14T14:59:52;0.60;;;0.38;;
24151;SDS011;12311;50.866;4.332;2023-06-14T15:02:18;1.40;;;0.47;;
24151;SDS011;12311;50.866;4.332;2023-06-14T15:04:44;0.50;;;0.50;;
24151;SDS011;12311;50.866;4.332;2023-06-14T15:07:11;1.48;;;0.50;;
24151;SDS011;12311;50.866;4.332;2023-06-14T15:09:36;1.48;;;0.82;;
24151;SDS011;12311;50.866;4.332;2023-06-14T15:12:03;0.65;;;0.55;;
24151;SDS011;12311;50.866;4.332;2023-06-14T15:14:29;2.38;;;0.95;;
24151;SDS011;12311;50.866;4.332;2023-06-14T15:16:55;1.30;;;0.45;;
24151;SDS011;12311;50.866;4.332;2023-06-14T15:19:22;0.57;;;0.50;;
24151;SDS011;12311;50.866;4.332;2023-06-14T15:21:48;2.28;;;0.47;;